createdAt,value
2018-09-26T00:00:06.886Z,0
2018-09-26T00:00:47.433Z,0
2018-09-26T00:01:27.986Z,0
2018-09-26T00:02:08.587Z,0
2018-09-26T00:02:49.142Z,0
2018-09-26T00:03:29.737Z,0
2018-09-26T00:04:10.288Z,0
2018-09-26T00:04:50.868Z,0
2018-09-26T00:05:31.434Z,0
2018-09-26T00:06:12.003Z,0
2018-09-26T00:06:52.575Z,0
2018-09-26T00:07:33.151Z,0
2018-09-26T00:08:13.710Z,0
2018-09-26T00:08:54.291Z,0
2018-09-26T00:09:34.891Z,0
2018-09-26T00:10:15.446Z,0
2018-09-26T00:10:56.032Z,0
2018-09-26T00:11:36.603Z,0
2018-09-26T00:12:17.151Z,0
2018-09-26T00:12:57.706Z,0
2018-09-26T00:13:38.257Z,0
2018-09-26T00:14:18.829Z,0
2018-09-26T00:14:59.393Z,0
2018-09-26T00:15:39.988Z,0
2018-09-26T00:16:20.564Z,0
2018-09-26T00:17:01.109Z,0
2018-09-26T00:17:41.665Z,0
2018-09-26T00:18:22.239Z,0
2018-09-26T00:19:02.820Z,0
2018-09-26T00:19:43.368Z,0
2018-09-26T00:20:23.920Z,0
2018-09-26T00:21:04.538Z,0
2018-09-26T00:21:45.112Z,0
2018-09-26T00:22:25.712Z,0
2018-09-26T00:23:06.265Z,0
2018-09-26T00:23:46.868Z,0
2018-09-26T00:24:27.434Z,0
2018-09-26T00:25:07.994Z,0
2018-09-26T00:25:48.538Z,0
2018-09-26T00:26:29.276Z,0
2018-09-26T00:27:09.888Z,0
2018-09-26T00:27:50.473Z,0
2018-09-26T00:28:31.034Z,0
2018-09-26T00:29:11.589Z,0
2018-09-26T00:29:52.182Z,0
2018-09-26T00:30:32.752Z,0
2018-09-26T00:31:13.280Z,0
2018-09-26T00:31:53.835Z,0
2018-09-26T00:32:34.420Z,0
2018-09-26T00:33:15.002Z,0
2018-09-26T00:33:55.556Z,0
2018-09-26T00:34:36.106Z,0
2018-09-26T00:35:16.674Z,0
2018-09-26T00:35:57.341Z,0
2018-09-26T00:36:37.828Z,0
2018-09-26T00:37:18.379Z,0
2018-09-26T00:37:58.956Z,0
2018-09-26T00:38:39.515Z,0
2018-09-26T00:39:20.087Z,0
2018-09-26T00:40:00.673Z,0
2018-09-26T00:40:41.208Z,0
2018-09-26T00:41:21.777Z,0
2018-09-26T00:42:02.326Z,0
2018-09-26T00:42:42.881Z,0
2018-09-26T00:43:23.447Z,0
2018-09-26T00:44:04.050Z,0
2018-09-26T00:44:44.589Z,0
2018-09-26T00:45:25.145Z,0
2018-09-26T00:46:05.719Z,0
2018-09-26T00:46:46.293Z,0
2018-09-26T00:47:26.837Z,0
2018-09-26T00:48:07.399Z,0
2018-09-26T00:48:47.943Z,0
2018-09-26T00:49:28.519Z,0
2018-09-26T00:50:09.077Z,0
2018-09-26T00:50:49.652Z,0
2018-09-26T00:51:30.207Z,0
2018-09-26T00:52:10.776Z,0
2018-09-26T00:52:51.358Z,0
2018-09-26T00:53:31.926Z,0
2018-09-26T00:54:12.493Z,0
2018-09-26T00:54:53.062Z,0
2018-09-26T00:55:33.630Z,0
2018-09-26T00:56:14.170Z,0
2018-09-26T00:56:54.749Z,0
2018-09-26T00:57:35.345Z,0
2018-09-26T00:58:15.901Z,0
2018-09-26T00:58:56.454Z,0
2018-09-26T00:59:37.034Z,0
2018-09-26T01:00:17.607Z,0
2018-09-26T01:00:58.196Z,0
2018-09-26T01:01:38.733Z,0
2018-09-26T01:02:19.292Z,0
2018-09-26T01:02:59.901Z,0
2018-09-26T01:03:40.440Z,0
2018-09-26T01:04:20.986Z,0
2018-09-26T01:05:01.550Z,0
2018-09-26T01:05:42.093Z,0
2018-09-26T01:06:22.665Z,0
2018-09-26T01:07:03.236Z,0
2018-09-26T01:07:43.793Z,0
2018-09-26T01:08:24.352Z,0
2018-09-26T01:09:04.933Z,0
2018-09-26T01:09:45.496Z,0
2018-09-26T01:10:26.046Z,0
2018-09-26T01:11:06.598Z,0
2018-09-26T01:11:47.167Z,0
2018-09-26T01:12:27.707Z,0
2018-09-26T01:13:08.262Z,0
2018-09-26T01:13:48.827Z,0
2018-09-26T01:14:29.406Z,0
2018-09-26T01:15:09.998Z,0
2018-09-26T01:15:50.552Z,0
2018-09-26T01:16:31.108Z,0
2018-09-26T01:17:11.661Z,0
2018-09-26T01:17:52.255Z,0
2018-09-26T01:18:32.822Z,0
2018-09-26T01:19:13.403Z,0
2018-09-26T01:19:53.953Z,0
2018-09-26T01:20:34.548Z,0
2018-09-26T01:21:15.104Z,0
2018-09-26T01:21:55.662Z,0
2018-09-26T01:22:36.215Z,0
2018-09-26T01:23:16.807Z,0
2018-09-26T01:23:57.380Z,0
2018-09-26T01:24:37.931Z,0
2018-09-26T01:25:18.482Z,0
2018-09-26T01:25:59.032Z,0
2018-09-26T01:26:39.596Z,0
2018-09-26T01:27:20.144Z,0
2018-09-26T01:28:00.718Z,0
2018-09-26T01:28:41.292Z,0
2018-09-26T01:29:21.843Z,0
2018-09-26T01:30:02.431Z,0
2018-09-26T01:30:42.988Z,0
2018-09-26T01:31:23.564Z,0
2018-09-26T01:32:04.127Z,0
2018-09-26T01:32:44.719Z,0
2018-09-26T01:33:25.298Z,0
2018-09-26T01:34:05.848Z,0
2018-09-26T01:34:46.403Z,0
2018-09-26T01:35:26.965Z,0
2018-09-26T01:36:07.530Z,0
2018-09-26T01:36:48.090Z,0
2018-09-26T01:37:28.639Z,0
2018-09-26T01:38:09.231Z,0
2018-09-26T01:38:49.802Z,0
2018-09-26T01:39:30.361Z,0
2018-09-26T01:40:10.949Z,0
2018-09-26T01:40:51.504Z,0
2018-09-26T01:41:32.226Z,0
2018-09-26T01:42:12.690Z,0
2018-09-26T01:42:53.232Z,0
2018-09-26T01:43:33.786Z,0
2018-09-26T01:44:14.359Z,0
2018-09-26T01:44:54.938Z,0
2018-09-26T01:45:35.510Z,0
2018-09-26T01:46:16.065Z,0
2018-09-26T01:46:56.616Z,0
2018-09-26T01:47:37.165Z,0
2018-09-26T01:48:17.737Z,0
2018-09-26T01:48:58.288Z,0
2018-09-26T01:49:38.862Z,0
2018-09-26T01:50:19.443Z,0
2018-09-26T01:51:00.002Z,0
2018-09-26T01:51:40.560Z,0
2018-09-26T01:52:21.136Z,0
2018-09-26T01:53:01.714Z,0
2018-09-26T01:53:42.277Z,0
2018-09-26T01:54:22.837Z,0
2018-09-26T01:55:03.397Z,0
2018-09-26T01:55:44.050Z,0
2018-09-26T01:56:24.616Z,0
2018-09-26T01:57:05.169Z,0
2018-09-26T01:57:46.279Z,0
2018-09-26T01:58:30.981Z,0
2018-09-26T01:59:13.903Z,0
2018-09-26T01:59:58.937Z,0
2018-09-26T02:00:41.410Z,0
2018-09-26T02:01:25.940Z,0
2018-09-26T02:02:07.789Z,0
2018-09-26T02:02:50.431Z,0
2018-09-26T02:03:36.485Z,0
2018-09-26T02:04:17.972Z,0
2018-09-26T02:05:00.932Z,0
2018-09-26T02:05:43.913Z,0
2018-09-26T02:06:27.863Z,0
2018-09-26T02:07:11.954Z,0
2018-09-26T02:07:56.968Z,0
2018-09-26T02:08:42.468Z,0
2018-09-26T02:09:27.544Z,0
2018-09-26T02:10:10.997Z,0
2018-09-26T02:10:54.025Z,0
2018-09-26T02:11:38.938Z,0
2018-09-26T02:12:23.991Z,0
2018-09-26T02:13:05.421Z,0
2018-09-26T02:13:50.915Z,0
2018-09-26T02:14:36.468Z,0
2018-09-26T02:15:20.879Z,0
2018-09-26T02:16:03.040Z,0
2018-09-26T02:16:46.951Z,0
2018-09-26T02:17:30.476Z,0
2018-09-26T02:18:12.820Z,0
2018-09-26T02:18:57.964Z,0
2018-09-26T02:19:38.762Z,0
2018-09-26T02:20:19.360Z,0
2018-09-26T02:21:00.264Z,0
2018-09-26T02:21:42.012Z,0
2018-09-26T02:22:22.858Z,0
2018-09-26T02:23:04.196Z,0
2018-09-26T02:23:44.867Z,0
2018-09-26T02:24:25.394Z,0
2018-09-26T02:25:05.983Z,0
2018-09-26T02:25:46.565Z,0
2018-09-26T02:26:27.111Z,0
2018-09-26T02:27:07.659Z,0
2018-09-26T02:27:48.229Z,0
2018-09-26T02:28:28.825Z,0
2018-09-26T02:29:09.380Z,0
2018-09-26T02:29:49.942Z,0
2018-09-26T02:30:30.512Z,0
2018-09-26T02:31:11.080Z,0
2018-09-26T02:31:51.645Z,0
2018-09-26T02:32:32.221Z,0
2018-09-26T02:33:12.801Z,0
2018-09-26T02:33:53.373Z,0
2018-09-26T02:34:33.946Z,0
2018-09-26T02:35:14.512Z,0
2018-09-26T02:35:55.070Z,0
2018-09-26T02:36:35.638Z,0
2018-09-26T02:37:16.238Z,0
2018-09-26T02:37:56.826Z,0
2018-09-26T02:38:37.387Z,0
2018-09-26T02:39:17.941Z,0
2018-09-26T02:39:58.565Z,0
2018-09-26T02:40:39.129Z,0
2018-09-26T02:41:19.701Z,0
2018-09-26T02:42:00.261Z,0
2018-09-26T02:42:40.829Z,0
2018-09-26T02:43:21.407Z,0
2018-09-26T02:44:01.971Z,0
2018-09-26T02:44:42.525Z,0
2018-09-26T02:45:23.084Z,0
2018-09-26T02:46:03.650Z,0
2018-09-26T02:46:44.298Z,0
2018-09-26T02:47:24.952Z,0
2018-09-26T02:48:05.516Z,0
2018-09-26T02:48:46.102Z,0
2018-09-26T02:49:26.684Z,0
2018-09-26T02:50:07.243Z,0
2018-09-26T02:50:47.808Z,0
2018-09-26T02:51:28.362Z,0
2018-09-26T02:52:08.920Z,0
2018-09-26T02:52:49.489Z,0
2018-09-26T02:53:30.063Z,0
2018-09-26T02:54:10.608Z,0
2018-09-26T02:54:51.238Z,0
2018-09-26T02:55:31.776Z,0
2018-09-26T02:56:12.324Z,0
2018-09-26T02:56:52.889Z,0
2018-09-26T02:57:33.445Z,0
2018-09-26T02:58:14.068Z,0
2018-09-26T02:58:54.649Z,0
2018-09-26T02:59:35.243Z,0
2018-09-26T03:00:15.819Z,0
2018-09-26T03:00:56.374Z,0
2018-09-26T03:01:36.929Z,0
2018-09-26T03:02:17.488Z,0
2018-09-26T03:02:58.064Z,0
2018-09-26T03:03:38.682Z,0
2018-09-26T03:04:19.277Z,0
2018-09-26T03:04:59.878Z,0
2018-09-26T03:05:40.514Z,0
2018-09-26T03:06:21.136Z,0
2018-09-26T03:07:01.665Z,0
2018-09-26T03:07:42.261Z,0
2018-09-26T03:08:22.812Z,0
2018-09-26T03:09:03.373Z,0
2018-09-26T03:09:43.951Z,0
2018-09-26T03:10:24.528Z,0
2018-09-26T03:11:05.093Z,0
2018-09-26T03:11:45.748Z,0
2018-09-26T03:12:26.341Z,0
2018-09-26T03:13:06.918Z,0
2018-09-26T03:13:47.486Z,0
2018-09-26T03:14:28.356Z,0
2018-09-26T03:15:08.956Z,0
2018-09-26T03:15:49.531Z,0
2018-09-26T03:16:30.107Z,0
2018-09-26T03:17:10.677Z,0
2018-09-26T03:17:51.238Z,0
2018-09-26T03:18:31.800Z,0
2018-09-26T03:19:12.360Z,0
2018-09-26T03:19:52.908Z,0
2018-09-26T03:20:33.493Z,0
2018-09-26T03:21:14.062Z,0
2018-09-26T03:21:54.614Z,0
2018-09-26T03:22:35.175Z,0
2018-09-26T03:23:15.783Z,0
2018-09-26T03:23:56.345Z,0
2018-09-26T03:24:36.894Z,0
2018-09-26T03:25:17.454Z,0
2018-09-26T03:25:58.015Z,0
2018-09-26T03:26:38.598Z,0
2018-09-26T03:27:19.147Z,0
2018-09-26T03:27:59.712Z,0
2018-09-26T03:28:40.282Z,0
2018-09-26T03:29:20.856Z,0
2018-09-26T03:30:01.454Z,0
2018-09-26T03:30:42.037Z,0
2018-09-26T03:31:22.609Z,0
2018-09-26T03:32:03.147Z,0
2018-09-26T03:32:43.719Z,0
2018-09-26T03:33:24.277Z,0
2018-09-26T03:34:04.883Z,0
2018-09-26T03:34:45.467Z,0
2018-09-26T03:35:26.033Z,0
2018-09-26T03:36:06.603Z,0
2018-09-26T03:36:47.176Z,0
2018-09-26T03:37:27.749Z,0
2018-09-26T03:38:08.324Z,0
2018-09-26T03:38:48.882Z,0
2018-09-26T03:39:29.436Z,0
2018-09-26T03:40:10.016Z,0
2018-09-26T03:40:50.658Z,0
2018-09-26T03:41:31.201Z,0
2018-09-26T03:42:11.763Z,0
2018-09-26T03:42:52.333Z,0
2018-09-26T03:43:32.881Z,0
2018-09-26T03:44:13.493Z,0
2018-09-26T03:44:54.096Z,0
2018-09-26T03:45:34.668Z,0
2018-09-26T03:46:15.230Z,0
2018-09-26T03:46:55.785Z,0
2018-09-26T03:47:36.349Z,0
2018-09-26T03:48:16.887Z,0
2018-09-26T03:48:57.672Z,0
2018-09-26T03:49:38.233Z,0
2018-09-26T03:50:18.789Z,0
2018-09-26T03:50:59.328Z,0
2018-09-26T03:51:39.908Z,0
2018-09-26T03:52:20.460Z,0
2018-09-26T03:53:01.040Z,0
2018-09-26T03:53:41.615Z,0
2018-09-26T03:54:22.187Z,0
2018-09-26T03:55:02.766Z,0
2018-09-26T03:55:43.340Z,0
2018-09-26T03:56:23.907Z,0
2018-09-26T03:57:04.471Z,0
2018-09-26T03:57:45.033Z,0
2018-09-26T03:58:25.584Z,0
2018-09-26T03:59:06.174Z,0
2018-09-26T03:59:46.702Z,0
2018-09-26T04:00:27.267Z,0
2018-09-26T04:01:07.815Z,0
2018-09-26T04:01:48.368Z,0
2018-09-26T04:02:28.919Z,0
2018-09-26T04:03:09.472Z,0
2018-09-26T04:03:50.022Z,0
2018-09-26T04:04:30.597Z,0
2018-09-26T04:05:11.210Z,0
2018-09-26T04:05:51.772Z,0
2018-09-26T04:06:32.338Z,0
2018-09-26T04:07:12.922Z,0
2018-09-26T04:07:53.510Z,0
2018-09-26T04:08:34.059Z,0
2018-09-26T04:09:14.615Z,0
2018-09-26T04:09:55.151Z,0
2018-09-26T04:10:35.715Z,0
2018-09-26T04:11:16.280Z,0
2018-09-26T04:11:56.878Z,0
2018-09-26T04:12:37.514Z,0
2018-09-26T04:13:17.983Z,0
2018-09-26T04:13:58.545Z,0
2018-09-26T04:14:39.123Z,0
2018-09-26T04:15:19.691Z,0
2018-09-26T04:16:00.258Z,0
2018-09-26T04:16:40.827Z,0
2018-09-26T04:17:21.387Z,0
2018-09-26T04:18:01.937Z,0
2018-09-26T04:18:42.508Z,0
2018-09-26T04:19:23.068Z,0
2018-09-26T04:20:03.668Z,0
2018-09-26T04:20:44.276Z,0
2018-09-26T04:21:24.853Z,0
2018-09-26T04:22:05.475Z,0
2018-09-26T04:22:46.045Z,0
2018-09-26T04:23:26.616Z,0
2018-09-26T04:24:07.177Z,0
2018-09-26T04:24:47.735Z,0
2018-09-26T04:25:28.291Z,0
2018-09-26T04:26:08.960Z,0
2018-09-26T04:26:49.630Z,0
2018-09-26T04:27:30.171Z,0
2018-09-26T04:28:10.657Z,0
2018-09-26T04:28:51.138Z,0
2018-09-26T04:29:31.704Z,0
2018-09-26T04:30:12.263Z,0
2018-09-26T04:30:52.827Z,0
2018-09-26T04:31:33.374Z,4
2018-09-26T04:32:13.947Z,4
2018-09-26T04:32:54.620Z,4
2018-09-26T04:33:35.210Z,4
2018-09-26T04:34:15.624Z,0
2018-09-26T04:34:56.200Z,0
2018-09-26T04:35:36.778Z,4
2018-09-26T04:36:17.352Z,4
2018-09-26T04:36:57.908Z,4
2018-09-26T04:37:38.469Z,4
2018-09-26T04:38:19.040Z,4
2018-09-26T04:38:59.603Z,8
2018-09-26T04:39:40.189Z,8
2018-09-26T04:40:20.747Z,8
2018-09-26T04:41:01.298Z,8
2018-09-26T04:41:41.906Z,12
2018-09-26T04:42:22.472Z,12
2018-09-26T04:43:03.037Z,16
2018-09-26T04:43:43.589Z,16
2018-09-26T04:44:24.146Z,16
2018-09-26T04:45:04.715Z,20
2018-09-26T04:45:45.271Z,20
2018-09-26T04:46:25.829Z,24
2018-09-26T04:47:06.380Z,28
2018-09-26T04:47:46.975Z,32
2018-09-26T04:48:27.524Z,36
2018-09-26T04:49:08.105Z,36
2018-09-26T04:49:48.673Z,40
2018-09-26T04:50:29.295Z,44
2018-09-26T04:51:09.852Z,44
2018-09-26T04:51:56.003Z,52
2018-09-26T04:52:37.277Z,56
2018-09-26T04:53:17.885Z,60
2018-09-26T04:53:58.463Z,64
2018-09-26T04:54:39.016Z,72
2018-09-26T04:55:19.580Z,76
2018-09-26T04:56:01.643Z,80
2018-09-26T04:56:44.446Z,84
2018-09-26T04:57:25.070Z,88
2018-09-26T04:58:05.773Z,96
2018-09-26T04:58:46.178Z,104
2018-09-26T04:59:26.743Z,112
2018-09-26T05:00:07.311Z,120
2018-09-26T05:00:47.868Z,124
2018-09-26T05:01:28.428Z,132
2018-09-26T05:02:09.001Z,140
2018-09-26T05:02:49.569Z,144
2018-09-26T05:03:30.127Z,156
2018-09-26T05:04:10.698Z,168
2018-09-26T05:04:51.263Z,176
2018-09-26T05:05:31.816Z,188
2018-09-26T05:06:12.377Z,204
2018-09-26T05:06:52.934Z,216
2018-09-26T05:07:33.499Z,232
2018-09-26T05:08:14.137Z,248
2018-09-26T05:08:54.718Z,268
2018-09-26T05:09:35.261Z,284
2018-09-26T05:10:15.814Z,308
2018-09-26T05:10:56.383Z,340
2018-09-26T05:11:36.937Z,372
2018-09-26T05:12:17.529Z,404
2018-09-26T05:12:58.088Z,444
2018-09-26T05:13:38.658Z,484
2018-09-26T05:14:19.230Z,524
2018-09-26T05:14:59.791Z,564
2018-09-26T05:15:40.358Z,604
2018-09-26T05:16:20.911Z,644
2018-09-26T05:17:01.472Z,676
2018-09-26T05:17:42.026Z,708
2018-09-26T05:18:22.589Z,740
2018-09-26T05:19:03.152Z,760
2018-09-26T05:19:43.774Z,784
2018-09-26T05:20:24.346Z,808
2018-09-26T05:21:04.929Z,832
2018-09-26T05:21:45.491Z,860
2018-09-26T05:22:26.061Z,892
2018-09-26T05:23:06.673Z,928
2018-09-26T05:23:47.200Z,960
2018-09-26T05:24:27.762Z,1000
2018-09-26T05:25:08.348Z,1036
2018-09-26T05:25:48.956Z,1076
2018-09-26T05:26:29.500Z,1120
2018-09-26T05:27:10.076Z,1168
2018-09-26T05:27:50.639Z,1220
2018-09-26T05:28:31.209Z,1276
2018-09-26T05:29:11.781Z,1340
2018-09-26T05:29:52.347Z,1396
2018-09-26T05:30:32.897Z,1460
2018-09-26T05:31:13.467Z,1520
2018-09-26T05:31:54.026Z,1584
2018-09-26T05:32:34.624Z,1636
2018-09-26T05:33:15.222Z,1688
2018-09-26T05:33:55.771Z,1732
2018-09-26T05:34:36.349Z,1768
2018-09-26T05:35:17.013Z,1808
2018-09-26T05:35:57.633Z,1844
2018-09-26T05:36:38.187Z,1880
2018-09-26T05:37:18.809Z,1920
2018-09-26T05:37:59.382Z,1968
2018-09-26T05:38:39.961Z,2012
2018-09-26T05:39:20.566Z,2052
2018-09-26T05:40:01.189Z,2096
2018-09-26T05:40:41.837Z,2144
2018-09-26T05:41:22.428Z,2196
2018-09-26T05:42:03.302Z,2252
2018-09-26T05:42:43.865Z,2312
2018-09-26T05:43:24.523Z,2364
2018-09-26T05:44:05.157Z,2428
2018-09-26T05:44:46.306Z,2496
2018-09-26T05:45:26.920Z,2568
2018-09-26T05:46:07.486Z,2648
2018-09-26T05:46:48.143Z,2736
2018-09-26T05:47:28.725Z,2820
2018-09-26T05:48:09.309Z,2896
2018-09-26T05:48:50.147Z,2956
2018-09-26T05:49:30.740Z,3008
2018-09-26T05:50:11.348Z,3056
2018-09-26T05:50:51.876Z,3108
2018-09-26T05:51:32.474Z,3148
2018-09-26T05:52:13.136Z,3180
2018-09-26T05:52:53.696Z,3200
2018-09-26T05:53:34.757Z,3228
2018-09-26T05:54:15.148Z,3268
2018-09-26T05:54:55.750Z,3288
2018-09-26T05:55:36.324Z,3336
2018-09-26T05:56:16.872Z,3448
2018-09-26T05:56:57.477Z,3592
2018-09-26T05:57:38.057Z,3756
2018-09-26T05:58:18.681Z,3892
2018-09-26T05:58:59.451Z,4040
2018-09-26T05:59:40.151Z,4192
2018-09-26T06:00:21.268Z,4320
2018-09-26T06:01:02.036Z,4408
2018-09-26T06:01:42.698Z,4472
2018-09-26T06:02:23.349Z,4504
2018-09-26T06:03:03.947Z,4544
2018-09-26T06:03:44.706Z,4572
2018-09-26T06:04:25.713Z,4548
2018-09-26T06:05:06.404Z,4492
2018-09-26T06:05:47.281Z,4424
2018-09-26T06:06:28.057Z,4392
2018-09-26T06:07:08.585Z,4416
2018-09-26T06:07:49.906Z,4456
2018-09-26T06:08:30.526Z,4524
2018-09-26T06:09:11.329Z,4592
2018-09-26T06:09:51.968Z,4672
2018-09-26T06:10:32.645Z,4732
2018-09-26T06:11:13.447Z,4788
2018-09-26T06:11:54.033Z,4852
2018-09-26T06:12:34.848Z,4948
2018-09-26T06:13:15.426Z,5056
2018-09-26T06:13:56.342Z,5136
2018-09-26T06:14:37.091Z,5212
2018-09-26T06:15:17.625Z,5280
2018-09-26T06:15:58.226Z,5312
2018-09-26T06:16:38.948Z,5300
2018-09-26T06:17:19.520Z,5252
2018-09-26T06:18:00.243Z,5196
2018-09-26T06:18:40.819Z,5156
2018-09-26T06:19:21.383Z,5156
2018-09-26T06:20:01.975Z,5168
2018-09-26T06:20:42.577Z,5168
2018-09-26T06:21:23.263Z,5128
2018-09-26T06:22:03.966Z,5088
2018-09-26T06:22:44.872Z,5020
2018-09-26T06:23:25.445Z,4920
2018-09-26T06:24:06.044Z,4780
2018-09-26T06:24:46.782Z,4644
2018-09-26T06:25:27.283Z,4552
2018-09-26T06:26:07.943Z,4524
2018-09-26T06:26:48.572Z,4552
2018-09-26T06:27:29.123Z,4632
2018-09-26T06:28:09.810Z,4736
2018-09-26T06:28:50.560Z,4820
2018-09-26T06:29:31.033Z,4916
2018-09-26T06:30:11.683Z,5020
2018-09-26T06:30:52.250Z,5124
2018-09-26T06:31:33.051Z,5212
2018-09-26T06:32:13.629Z,5308
2018-09-26T06:32:54.338Z,5400
2018-09-26T06:33:35.094Z,5464
2018-09-26T06:34:15.907Z,5504
2018-09-26T06:34:58.181Z,5560
2018-09-26T06:35:38.797Z,5608
2018-09-26T06:36:19.461Z,5664
2018-09-26T06:37:00.108Z,5736
2018-09-26T06:37:40.689Z,5816
2018-09-26T06:38:21.551Z,5916
2018-09-26T06:39:02.164Z,6020
2018-09-26T06:39:42.784Z,6068
2018-09-26T06:40:23.411Z,6060
2018-09-26T06:41:04.035Z,5972
2018-09-26T06:41:44.626Z,5764
2018-09-26T06:42:25.184Z,5460
2018-09-26T06:43:05.783Z,5160
2018-09-26T06:43:46.394Z,4876
2018-09-26T06:44:27.076Z,4632
2018-09-26T06:45:07.622Z,4416
2018-09-26T06:45:48.417Z,4244
2018-09-26T06:46:29.012Z,4096
2018-09-26T06:47:09.672Z,3964
2018-09-26T06:47:50.255Z,3836
2018-09-26T06:48:30.873Z,3740
2018-09-26T06:49:11.477Z,3720
2018-09-26T06:49:52.065Z,3732
2018-09-26T06:50:32.661Z,3732
2018-09-26T06:51:13.245Z,3672
2018-09-26T06:51:53.882Z,3552
2018-09-26T06:52:34.482Z,3372
2018-09-26T06:53:15.085Z,3192
2018-09-26T06:53:55.725Z,3020
2018-09-26T06:54:36.326Z,2880
2018-09-26T06:55:16.877Z,2800
2018-09-26T06:55:57.476Z,2776
2018-09-26T06:56:38.082Z,2828
2018-09-26T06:57:18.670Z,2952
2018-09-26T06:57:59.329Z,3120
2018-09-26T06:58:40.104Z,3264
2018-09-26T06:59:20.817Z,3416
2018-09-26T07:00:01.435Z,3520
2018-09-26T07:00:42.007Z,3536
2018-09-26T07:01:22.604Z,3560
2018-09-26T07:02:03.195Z,3612
2018-09-26T07:02:43.809Z,3744
2018-09-26T07:03:24.396Z,3868
2018-09-26T07:04:04.974Z,3944
2018-09-26T07:04:45.580Z,3972
2018-09-26T07:05:26.150Z,4028
2018-09-26T07:06:06.869Z,4144
2018-09-26T07:06:47.462Z,4204
2018-09-26T07:07:28.065Z,4272
2018-09-26T07:08:08.668Z,4312
2018-09-26T07:08:49.271Z,4372
2018-09-26T07:09:29.879Z,4376
2018-09-26T07:10:10.489Z,4348
2018-09-26T07:10:51.065Z,4268
2018-09-26T07:11:31.640Z,4244
2018-09-26T07:12:12.324Z,4332
2018-09-26T07:12:52.836Z,4484
2018-09-26T07:13:33.411Z,4728
2018-09-26T07:14:14.044Z,5072
2018-09-26T07:14:54.613Z,5484
2018-09-26T07:15:35.262Z,5996
2018-09-26T07:16:15.800Z,6676
2018-09-26T07:16:56.361Z,7312
2018-09-26T07:17:36.925Z,7924
2018-09-26T07:18:17.493Z,8820
2018-09-26T07:18:58.138Z,10076
2018-09-26T07:19:38.791Z,11488
2018-09-26T07:20:19.333Z,12956
2018-09-26T07:20:59.913Z,15264
2018-09-26T07:21:40.521Z,17760
2018-09-26T07:22:21.118Z,25984
2018-09-26T07:23:01.681Z,23968
2018-09-26T07:23:42.246Z,18464
2018-09-26T07:24:22.840Z,15896
2018-09-26T07:25:03.409Z,20192
2018-09-26T07:25:43.964Z,45760
2018-09-26T07:26:24.546Z,28032
2018-09-26T07:27:05.193Z,33312
2018-09-26T07:27:45.777Z,60480
2018-09-26T07:28:26.407Z,44032
2018-09-26T07:29:06.975Z,49440
2018-09-26T07:29:47.592Z,33248
2018-09-26T07:30:28.165Z,44800
2018-09-26T07:31:08.737Z,30624
2018-09-26T07:31:49.337Z,23392
2018-09-26T07:32:29.923Z,22144
2018-09-26T07:33:10.488Z,20256
2018-09-26T07:33:51.107Z,19584
2018-09-26T07:34:31.731Z,17536
2018-09-26T07:35:12.320Z,21440
2018-09-26T07:35:52.926Z,25696
2018-09-26T07:36:33.508Z,22368
2018-09-26T07:37:14.099Z,22912
2018-09-26T07:37:54.647Z,28352
2018-09-26T07:38:35.315Z,17696
2018-09-26T07:39:15.801Z,16832
2018-09-26T07:39:56.370Z,16672
2018-09-26T07:40:36.931Z,15448
2018-09-26T07:41:17.518Z,18496
2018-09-26T07:41:58.069Z,34560
2018-09-26T07:42:38.696Z,37504
2018-09-26T07:43:19.247Z,88832
2018-09-26T07:43:59.827Z,73312
2018-09-26T07:44:40.386Z,60576
2018-09-26T07:45:21.002Z,65888
2018-09-26T07:46:01.530Z,67872
2018-09-26T07:46:42.098Z,47296
2018-09-26T07:47:22.661Z,71552
2018-09-26T07:48:03.231Z,85568
2018-09-26T07:48:43.788Z,46976
2018-09-26T07:49:24.355Z,56512
2018-09-26T07:50:04.965Z,54944
2018-09-26T07:50:45.515Z,40096
2018-09-26T07:51:26.111Z,35296
2018-09-26T07:52:06.742Z,16896
2018-09-26T07:52:47.390Z,12044
2018-09-26T07:53:27.944Z,12960
2018-09-26T07:54:08.600Z,50432
2018-09-26T07:54:49.170Z,34656
2018-09-26T07:55:29.751Z,50688
2018-09-26T07:56:10.338Z,36800
2018-09-26T07:56:51.005Z,47488
2018-09-26T07:57:31.596Z,57504
2018-09-26T07:58:12.179Z,65600
2018-09-26T07:58:52.791Z,31776
2018-09-26T07:59:33.376Z,66336
2018-09-26T08:00:13.958Z,38784
2018-09-26T08:00:54.518Z,43808
2018-09-26T08:01:35.128Z,36256
2018-09-26T08:02:15.718Z,29312
2018-09-26T08:02:56.313Z,23008
2018-09-26T08:03:37.054Z,32064
2018-09-26T08:04:17.631Z,40256
2018-09-26T08:04:58.197Z,31968
2018-09-26T08:05:38.786Z,45440
2018-09-26T08:06:19.516Z,42976
2018-09-26T08:07:00.093Z,32064
2018-09-26T08:07:40.670Z,32896
2018-09-26T08:08:21.264Z,20672
2018-09-26T08:09:01.863Z,18272
2018-09-26T08:09:42.495Z,22528
2018-09-26T08:10:23.098Z,24384
2018-09-26T08:11:03.664Z,20128
2018-09-26T08:11:46.257Z,20800
2018-09-26T08:12:26.994Z,19872
2018-09-26T08:13:08.772Z,17824
2018-09-26T08:13:49.786Z,19392
2018-09-26T08:14:30.713Z,25280
2018-09-26T08:15:11.291Z,18112
2018-09-26T08:15:51.868Z,17952
2018-09-26T08:16:33.648Z,22720
2018-09-26T08:17:14.842Z,30784
2018-09-26T08:17:55.659Z,24416
2018-09-26T08:18:36.517Z,25856
2018-09-26T08:19:17.057Z,18336
2018-09-26T08:19:58.062Z,17024
2018-09-26T08:20:38.664Z,19488
2018-09-26T08:21:19.417Z,18176
2018-09-26T08:21:59.983Z,18624
2018-09-26T08:22:40.587Z,19520
2018-09-26T08:23:21.491Z,22624
2018-09-26T08:24:02.204Z,24256
2018-09-26T08:24:42.644Z,24640
2018-09-26T08:25:23.234Z,23136
2018-09-26T08:26:03.792Z,21856
2018-09-26T08:26:44.447Z,20800
2018-09-26T08:27:25.221Z,18560
2018-09-26T08:28:05.879Z,18208
2018-09-26T08:28:46.432Z,19648
2018-09-26T08:29:27.031Z,18784
2018-09-26T08:30:07.622Z,16896
2018-09-26T08:30:48.262Z,15936
2018-09-26T08:31:28.826Z,16544
2018-09-26T08:32:09.442Z,16448
2018-09-26T08:32:50.062Z,15968
2018-09-26T08:33:30.648Z,14564
2018-09-26T08:34:11.219Z,13924
2018-09-26T08:34:51.893Z,13424
2018-09-26T08:35:32.484Z,13276
2018-09-26T08:36:13.119Z,13372
2018-09-26T08:36:53.685Z,12936
2018-09-26T08:37:34.227Z,12568
2018-09-26T08:38:14.782Z,12404
2018-09-26T08:38:57.012Z,12032
2018-09-26T08:39:37.605Z,11840
2018-09-26T08:40:18.174Z,11812
2018-09-26T08:40:58.764Z,11696
2018-09-26T08:41:39.414Z,11644
2018-09-26T08:42:19.985Z,11588
2018-09-26T08:43:00.549Z,11520
2018-09-26T08:43:41.101Z,11356
2018-09-26T08:44:21.685Z,11208
2018-09-26T08:45:02.278Z,11176
2018-09-26T08:45:42.878Z,11160
2018-09-26T08:46:23.472Z,10796
2018-09-26T08:47:04.035Z,10884
2018-09-26T08:47:44.631Z,10872
2018-09-26T08:48:25.194Z,10656
2018-09-26T08:49:05.781Z,10068
2018-09-26T08:49:46.363Z,9648
2018-09-26T08:50:26.943Z,9172
2018-09-26T08:51:07.507Z,8872
2018-09-26T08:51:48.084Z,8584
2018-09-26T08:52:28.648Z,8400
2018-09-26T08:53:09.259Z,8136
2018-09-26T08:53:49.866Z,7788
2018-09-26T08:54:30.350Z,7556
2018-09-26T08:55:10.904Z,7412
2018-09-26T08:55:51.490Z,7272
2018-09-26T08:56:32.084Z,7060
2018-09-26T08:57:12.644Z,6900
2018-09-26T08:57:53.278Z,6744
2018-09-26T08:58:33.880Z,6532
2018-09-26T08:59:14.433Z,6340
2018-09-26T08:59:54.986Z,6208
2018-09-26T09:00:35.601Z,6096
2018-09-26T09:01:16.149Z,6020
2018-09-26T09:01:56.719Z,5904
2018-09-26T09:02:37.341Z,5832
2018-09-26T09:03:17.875Z,5712
2018-09-26T09:03:58.681Z,5600
2018-09-26T09:04:39.250Z,5508
2018-09-26T09:05:19.812Z,5396
2018-09-26T09:06:00.430Z,5288
2018-09-26T09:06:41.040Z,5160
2018-09-26T09:07:21.620Z,5048
2018-09-26T09:08:02.195Z,4976
2018-09-26T09:08:42.772Z,4924
2018-09-26T09:09:23.331Z,4904
2018-09-26T09:10:03.898Z,4904
2018-09-26T09:10:44.451Z,4908
2018-09-26T09:11:25.014Z,4920
2018-09-26T09:12:05.591Z,4948
2018-09-26T09:12:46.169Z,4972
2018-09-26T09:13:26.741Z,5000
2018-09-26T09:14:07.307Z,5012
2018-09-26T09:14:47.937Z,5040
2018-09-26T09:15:28.429Z,5076
2018-09-26T09:16:09.045Z,5184
2018-09-26T09:16:49.607Z,5248
2018-09-26T09:17:30.166Z,5328
2018-09-26T09:18:10.757Z,5408
2018-09-26T09:18:51.341Z,5508
2018-09-26T09:19:31.878Z,5592
2018-09-26T09:20:12.525Z,5648
2018-09-26T09:20:53.006Z,5680
2018-09-26T09:21:33.584Z,5696
2018-09-26T09:22:14.149Z,5712
2018-09-26T09:22:54.723Z,5760
2018-09-26T09:23:35.280Z,5792
2018-09-26T09:24:15.843Z,5852
2018-09-26T09:24:56.453Z,5888
2018-09-26T09:25:36.998Z,5964
2018-09-26T09:26:17.565Z,5968
2018-09-26T09:26:58.139Z,6016
2018-09-26T09:27:38.804Z,6092
2018-09-26T09:28:19.310Z,6160
2018-09-26T09:28:59.859Z,6164